PRIVATE WETTERSTATION BILLIGHEIM-ALLFELD                       ZURCK
Wetterdaten: Mittwoch, 19.01.2022
Datum Zeit Temp. A. Temp. A. min Temp. A. max Feuchte A. Luftdruck Regen Wind Richtung Richtung Sonnenschein ET Solar Taupunkt Windchill Windben Empfang
19.01.2022 00:00 3,6 C 3,6 C 3,7 C 86 % 1033,4 hPa 0,0 l/m 1,6 km/h (1 Bft) O-SO 112 0 min 0,000 mm 0 W/m 1,5 C 3,6 C 11,3 km/h (2 Bft) 98 %
19.01.2022 00:10 3,6 C 3,6 C 3,6 C 85 % 1033,4 hPa 0,0 l/m 1,6 km/h (1 Bft) O-SO 112 0 min 0,000 mm 0 W/m 1,3 C 3,6 C 11,3 km/h (2 Bft) 97 %
19.01.2022 00:20 3,6 C 3,6 C 3,6 C 86 % 1033,4 hPa 0,0 l/m 0,0 km/h (0 Bft) O 90 0 min 0,000 mm 0 W/m 1,5 C 3,6 C 6,4 km/h (2 Bft) 98 %
19.01.2022 00:30 3,6 C 3,6 C 3,6 C 85 % 1033,3 hPa 0,0 l/m 1,6 km/h (1 Bft) O-SO 112 0 min 0,000 mm 0 W/m 1,3 C 3,6 C 8,0 km/h (2 Bft) 97 %
19.01.2022 00:40 3,6 C 3,6 C 3,6 C 85 % 1033,1 hPa 0,0 l/m 1,6 km/h (1 Bft) SO 135 0 min 0,000 mm 0 W/m 1,3 C 3,6 C 6,4 km/h (2 Bft) 98 %
19.01.2022 00:50 3,4 C 3,4 C 3,6 C 85 % 1033,1 hPa 0,0 l/m 3,2 km/h (1 Bft) SO 135 0 min 0,000 mm 0 W/m 1,1 C 3,4 C 9,7 km/h (2 Bft) 88 %
19.01.2022 01:00 3,3 C 3,3 C 3,4 C 84 % 1033,2 hPa 0,0 l/m 1,6 km/h (1 Bft) O-SO 112 0 min 0,000 mm 0 W/m 0,9 C 3,3 C 11,3 km/h (2 Bft) 99 %
19.01.2022 01:10 3,3 C 3,3 C 3,3 C 84 % 1033,0 hPa 0,0 l/m 1,6 km/h (1 Bft) S-SO 157 0 min 0,000 mm 0 W/m 0,9 C 3,3 C 11,3 km/h (2 Bft) 100 %
19.01.2022 01:20 3,2 C 3,2 C 3,3 C 84 % 1032,6 hPa 0,0 l/m 1,6 km/h (1 Bft) O-SO 112 0 min 0,000 mm 0 W/m 0,8 C 3,2 C 11,3 km/h (2 Bft) 100 %
19.01.2022 01:30 2,9 C 2,9 C 3,2 C 84 % 1032,5 hPa 0,0 l/m 1,6 km/h (1 Bft) O-SO 112 0 min 0,000 mm 0 W/m 0,5 C 2,9 C 6,4 km/h (2 Bft) 100 %
19.01.2022 01:40 2,7 C 2,7 C 2,9 C 84 % 1032,7 hPa 0,0 l/m 0,0 km/h (0 Bft) SO 135 0 min 0,000 mm 0 W/m 0,3 C 2,7 C 4,8 km/h (1 Bft) 100 %
19.01.2022 01:50 2,4 C 2,4 C 2,7 C 85 % 1032,8 hPa 0,0 l/m 0,0 km/h (0 Bft) N 0 0 min 0,000 mm 0 W/m 0,1 C 2,4 C 0,0 km/h (0 Bft) 100 %
19.01.2022 02:00 2,3 C 2,3 C 2,4 C 85 % 1032,7 hPa 0,0 l/m 0,0 km/h (0 Bft) N 0 0 min 0,000 mm 0 W/m 0,0 C 2,3 C 0,0 km/h (0 Bft) 100 %
19.01.2022 02:10 2,2 C 2,2 C 2,3 C 86 % 1032,7 hPa 0,0 l/m 0,0 km/h (0 Bft) N 0 0 min 0,000 mm 0 W/m 0,1 C 2,2 C 0,0 km/h (0 Bft) 99 %
19.01.2022 02:20 2,2 C 2,2 C 2,2 C 86 % 1032,7 hPa 0,0 l/m 0,0 km/h (0 Bft) N 0 0 min 0,000 mm 0 W/m 0,1 C 2,2 C 0,0 km/h (0 Bft) 100 %
19.01.2022 02:30 2,2 C 2,2 C 2,2 C 86 % 1032,2 hPa 0,0 l/m 0,0 km/h (0 Bft) SO 135 0 min 0,000 mm 0 W/m 0,1 C 2,2 C 3,2 km/h (1 Bft) 90 %
19.01.2022 02:40 2,2 C 2,2 C 2,2 C 86 % 1031,9 hPa 0,0 l/m 0,0 km/h (0 Bft) SO 135 0 min 0,000 mm 0 W/m 0,1 C 2,2 C 4,8 km/h (1 Bft) 98 %
19.01.2022 02:50 2,1 C 2,1 C 2,2 C 86 % 1032,4 hPa 0,0 l/m 0,0 km/h (0 Bft) N 0 0 min 0,000 mm 0 W/m 0,0 C 2,1 C 0,0 km/h (0 Bft) 100 %
19.01.2022 03:00 1,9 C 1,9 C 2,1 C 85 % 1032,3 hPa 0,0 l/m 0,0 km/h (0 Bft) N 0 0 min 0,000 mm 0 W/m -0,3 C 1,9 C 0,0 km/h (0 Bft) 99 %
19.01.2022 03:10 1,6 C 1,6 C 1,8 C 86 % 1032,0 hPa 0,0 l/m 0,0 km/h (0 Bft) N 0 0 min 0,000 mm 0 W/m -0,5 C 1,6 C 0,0 km/h (0 Bft) 100 %
19.01.2022 03:20 1,4 C 1,4 C 1,6 C 87 % 1031,7 hPa 0,0 l/m 0,0 km/h (0 Bft) N 0 0 min 0,000 mm 0 W/m -0,5 C 1,4 C 0,0 km/h (0 Bft) 100 %
19.01.2022 03:30 1,2 C 1,2 C 1,4 C 88 % 1031,5 hPa 0,0 l/m 0,0 km/h (0 Bft) SO 135 0 min 0,000 mm 0 W/m -0,6 C 1,2 C 4,8 km/h (1 Bft) 100 %
19.01.2022 03:40 1,1 C 1,1 C 1,2 C 88 % 1031,4 hPa 0,0 l/m 0,0 km/h (0 Bft) N 0 0 min 0,000 mm 0 W/m -0,7 C 1,1 C 0,0 km/h (0 Bft) 99 %
19.01.2022 03:50 0,8 C 0,8 C 1,1 C 88 % 1031,2 hPa 0,0 l/m 0,0 km/h (0 Bft) N 0 0 min 0,000 mm 0 W/m -1,0 C 0,8 C 0,0 km/h (0 Bft) 100 %
19.01.2022 04:00 0,7 C 0,7 C 0,8 C 89 % 1031,1 hPa 0,0 l/m 0,0 km/h (0 Bft) N 0 0 min 0,000 mm 0 W/m -0,9 C 0,7 C 0,0 km/h (0 Bft) 87 %
19.01.2022 04:10 0,6 C 0,6 C 0,7 C 89 % 1030,9 hPa 0,0 l/m 0,0 km/h (0 Bft) N 0 0 min 0,000 mm 0 W/m -1,0 C 0,6 C 0,0 km/h (0 Bft) 100 %
19.01.2022 04:20 0,5 C 0,5 C 0,6 C 89 % 1030,8 hPa 0,0 l/m 0,0 km/h (0 Bft) SO 135 0 min 0,000 mm 0 W/m -1,1 C 0,5 C 3,2 km/h (1 Bft) 100 %
19.01.2022 04:30 0,4 C 0,4 C 0,5 C 89 % 1030,6 hPa 0,0 l/m 0,0 km/h (0 Bft) N 0 0 min 0,000 mm 0 W/m -1,2 C 0,4 C 0,0 km/h (0 Bft) 100 %
19.01.2022 04:40 0,3 C 0,3 C 0,4 C 90 % 1030,6 hPa 0,0 l/m 0,0 km/h (0 Bft) N 0 0 min 0,000 mm 0 W/m -1,1 C 0,3 C 0,0 km/h (0 Bft) 100 %
19.01.2022 04:50 0,0 C 0,0 C 0,3 C 90 % 1030,6 hPa 0,0 l/m 0,0 km/h (0 Bft) N 0 0 min 0,000 mm 0 W/m -1,4 C 0,0 C 0,0 km/h (0 Bft) 100 %
19.01.2022 05:00 -0,4 C -0,4 C 0,0 C 90 % 1030,4 hPa 0,0 l/m 0,0 km/h (0 Bft) N 0 0 min 0,000 mm 0 W/m -1,8 C -0,4 C 0,0 km/h (0 Bft) 100 %
19.01.2022 05:10 -0,6 C -0,6 C -0,4 C 91 % 1029,9 hPa 0,0 l/m 0,0 km/h (0 Bft) SO 135 0 min 0,000 mm 0 W/m -1,9 C -0,6 C 3,2 km/h (1 Bft) 100 %
19.01.2022 05:20 -0,5 C -0,7 C -0,5 C 92 % 1029,8 hPa 0,0 l/m 0,0 km/h (0 Bft) O-SO 112 0 min 0,000 mm 0 W/m -1,6 C -0,5 C 3,2 km/h (1 Bft) 89 %
19.01.2022 05:30 -0,3 C -0,5 C -0,3 C 92 % 1029,4 hPa 0,0 l/m 0,0 km/h (0 Bft) O-SO 112 0 min 0,000 mm 0 W/m -1,4 C -0,3 C 4,8 km/h (1 Bft) 100 %
19.01.2022 05:40 0,1 C -0,3 C 0,1 C 92 % 1029,0 hPa 0,0 l/m 0,0 km/h (0 Bft) O-SO 112 0 min 0,000 mm 0 W/m -1,0 C 0,1 C 6,4 km/h (2 Bft) 100 %
19.01.2022 05:50 0,3 C 0,1 C 0,3 C 91 % 1028,9 hPa 0,0 l/m 1,6 km/h (1 Bft) O 90 0 min 0,000 mm 0 W/m -1,0 C 0,3 C 9,7 km/h (2 Bft) 100 %
19.01.2022 06:00 0,3 C 0,3 C 0,3 C 91 % 1028,8 hPa 0,0 l/m 1,6 km/h (1 Bft) O 90 0 min 0,000 mm 0 W/m -1,0 C 0,3 C 8,0 km/h (2 Bft) 100 %
19.01.2022 06:10 0,3 C 0,3 C 0,3 C 90 % 1028,6 hPa 0,0 l/m 0,0 km/h (0 Bft) O 90 0 min 0,000 mm 0 W/m -1,1 C 0,3 C 6,4 km/h (2 Bft) 100 %
19.01.2022 06:20 0,2 C 0,2 C 0,3 C 90 % 1028,4 hPa 0,0 l/m 0,0 km/h (0 Bft) N 0 0 min 0,000 mm 0 W/m -1,2 C 0,2 C 0,0 km/h (0 Bft) 100 %
19.01.2022 06:30 0,0 C 0,0 C 0,2 C 90 % 1028,5 hPa 0,0 l/m 0,0 km/h (0 Bft) O 90 0 min 0,000 mm 0 W/m -1,4 C 0,0 C 4,8 km/h (1 Bft) 100 %
19.01.2022 06:40 -0,2 C -0,2 C 0,0 C 90 % 1028,5 hPa 0,0 l/m 0,0 km/h (0 Bft) O 90 0 min 0,000 mm 0 W/m -1,6 C -0,2 C 3,2 km/h (1 Bft) 91 %
19.01.2022 06:50 -0,4 C -0,4 C -0,2 C 91 % 1028,5 hPa 0,0 l/m 0,0 km/h (0 Bft) N 0 0 min 0,000 mm 0 W/m -1,7 C -0,4 C 0,0 km/h (0 Bft) 99 %
19.01.2022 07:00 -0,6 C -0,6 C -0,4 C 91 % 1028,6 hPa 0,0 l/m 0,0 km/h (0 Bft) N 0 0 min 0,000 mm 0 W/m -1,9 C -0,6 C 0,0 km/h (0 Bft) 100 %
19.01.2022 07:10 -0,8 C -0,8 C -0,6 C 91 % 1028,5 hPa 0,0 l/m 0,0 km/h (0 Bft) N 0 0 min 0,000 mm 0 W/m -2,1 C -0,8 C 0,0 km/h (0 Bft) 100 %
19.01.2022 07:20 -0,9 C -0,9 C -0,8 C 92 % 1028,3 hPa 0,0 l/m 0,0 km/h (0 Bft) N 0 0 min 0,000 mm 0 W/m -2,0 C -0,9 C 0,0 km/h (0 Bft) 100 %
19.01.2022 07:30 -1,1 C -1,1 C -0,9 C 92 % 1028,3 hPa 0,0 l/m 0,0 km/h (0 Bft) N 0 0 min 0,000 mm 0 W/m -2,2 C -1,1 C 0,0 km/h (0 Bft) 100 %
19.01.2022 07:40 -1,2 C -1,2 C -1,1 C 92 % 1028,2 hPa 0,0 l/m 0,0 km/h (0 Bft) N 0 0 min 0,000 mm 0 W/m -2,3 C -1,2 C 0,0 km/h (0 Bft) 100 %
19.01.2022 07:50 -1,3 C -1,3 C -1,2 C 92 % 1028,1 hPa 0,0 l/m 0,0 km/h (0 Bft) N 0 0 min 0,000 mm 0 W/m -2,4 C -1,3 C 0,0 km/h (0 Bft) 100 %
19.01.2022 08:00 -1,5 C -1,5 C -1,3 C 92 % 1028,2 hPa 0,0 l/m 0,0 km/h (0 Bft) N 0 0 min 0,000 mm 0 W/m -2,6 C -1,5 C 0,0 km/h (0 Bft) 100 %
19.01.2022 08:10 -1,6 C -1,6 C -1,5 C 92 % 1028,3 hPa 0,0 l/m 0,0 km/h (0 Bft) N 0 0 min 0,000 mm 5 W/m -2,7 C -1,6 C 0,0 km/h (0 Bft) 100 %
19.01.2022 08:20 -1,6 C -1,7 C -1,6 C 93 % 1028,2 hPa 0,0 l/m 0,0 km/h (0 Bft) N 0 0 min 0,000 mm 9 W/m -2,6 C -1,6 C 0,0 km/h (0 Bft) 100 %
19.01.2022 08:30 -1,5 C -1,6 C -1,4 C 92 % 1028,2 hPa 0,0 l/m 0,0 km/h (0 Bft) N 0 0 min 0,000 mm 16 W/m -2,6 C -1,5 C 0,0 km/h (0 Bft) 100 %
19.01.2022 08:40 -1,4 C -1,5 C -1,4 C 93 % 1028,0 hPa 0,0 l/m 0,0 km/h (0 Bft) N 0 0 min 0,000 mm 19 W/m -2,4 C -1,4 C 0,0 km/h (0 Bft) 100 %
19.01.2022 08:50 -1,3 C -1,4 C -1,3 C 93 % 1027,9 hPa 0,0 l/m 0,0 km/h (0 Bft) N 0 0 min 0,000 mm 33 W/m -2,3 C -1,3 C 0,0 km/h (0 Bft) 100 %
19.01.2022 09:00 -1,0 C -1,2 C -0,9 C 93 % 1027,8 hPa 0,0 l/m 0,0 km/h (0 Bft) N 0 0 min 0,000 mm 42 W/m -2,0 C -1,0 C 0,0 km/h (0 Bft) 100 %
19.01.2022 09:10 -1,0 C -1,1 C -0,9 C 93 % 1027,8 hPa 0,0 l/m 0,0 km/h (0 Bft) N 0 0 min 0,000 mm 44 W/m -2,0 C -1,0 C 0,0 km/h (0 Bft) 100 %
19.01.2022 09:20 -0,8 C -1,0 C -0,8 C 93 % 1027,7 hPa 0,0 l/m 0,0 km/h (0 Bft) N 0 0 min 0,000 mm 111 W/m -1,8 C -0,8 C 0,0 km/h (0 Bft) 100 %
19.01.2022 09:30 -0,2 C -0,8 C -0,2 C 93 % 1027,7 hPa 0,0 l/m 0,0 km/h (0 Bft) N 0 0 min 0,000 mm 132 W/m -1,2 C -0,2 C 0,0 km/h (0 Bft) 100 %
19.01.2022 09:40 0,2 C -0,2 C 0,2 C 92 % 1027,7 hPa 0,0 l/m 0,0 km/h (0 Bft) O-SO 112 0 min 0,000 mm 148 W/m -0,9 C 0,2 C 4,8 km/h (1 Bft) 100 %
19.01.2022 09:50 0,4 C 0,2 C 0,4 C 92 % 1027,6 hPa 0,0 l/m 0,0 km/h (0 Bft) O-SO 112 0 min 0,000 mm 148 W/m -0,7 C 0,4 C 6,4 km/h (2 Bft) 100 %
19.01.2022 10:00 0,6 C 0,4 C 0,6 C 91 % 1027,6 hPa 0,0 l/m 3,2 km/h (1 Bft) S-SO 157 10 min 0,025 mm 162 W/m -0,7 C 0,6 C 8,0 km/h (2 Bft) 100 %
19.01.2022 10:10 0,8 C 0,6 C 0,8 C 90 % 1027,7 hPa 0,0 l/m 3,2 km/h (1 Bft) S-SO 157 10 min 0,000 mm 178 W/m -0,6 C 0,8 C 8,0 km/h (2 Bft) 100 %
19.01.2022 10:20 0,8 C 0,8 C 0,8 C 90 % 1027,7 hPa 0,0 l/m 6,4 km/h (2 Bft) S 180 10 min 0,000 mm 190 W/m -0,6 C 0,8 C 11,3 km/h (2 Bft) 100 %
19.01.2022 10:30 1,0 C 0,8 C 1,0 C 89 % 1027,6 hPa 0,0 l/m 3,2 km/h (1 Bft) S 180 10 min 0,000 mm 206 W/m -0,6 C 1,0 C 9,7 km/h (2 Bft) 100 %
19.01.2022 10:40 1,0 C 0,9 C 1,0 C 89 % 1027,4 hPa 0,0 l/m 6,4 km/h (2 Bft) S 180 10 min 0,000 mm 218 W/m -0,6 C 1,0 C 14,5 km/h (3 Bft) 89 %
19.01.2022 10:50 1,1 C 1,0 C 1,2 C 89 % 1027,3 hPa 0,0 l/m 4,8 km/h (1 Bft) S-SO 157 10 min 0,000 mm 230 W/m -0,5 C 1,1 C 12,9 km/h (3 Bft) 100 %
19.01.2022 11:00 1,4 C 1,2 C 1,4 C 88 % 1027,2 hPa 0,0 l/m 4,8 km/h (1 Bft) S 180 10 min 0,076 mm 241 W/m -0,4 C 1,4 C 11,3 km/h (2 Bft) 100 %
19.01.2022 11:10 1,7 C 1,4 C 1,7 C 88 % 1027,1 hPa 0,0 l/m 3,2 km/h (1 Bft) S 180 10 min 0,000 mm 253 W/m -0,1 C 1,7 C 11,3 km/h (2 Bft) 99 %
19.01.2022 11:20 1,8 C 1,7 C 1,9 C 87 % 1026,8 hPa 0,0 l/m 3,2 km/h (1 Bft) S 180 10 min 0,000 mm 264 W/m -0,1 C 1,8 C 11,3 km/h (2 Bft) 100 %
19.01.2022 11:30 2,1 C 1,8 C 2,1 C 87 % 1026,9 hPa 0,0 l/m 4,8 km/h (1 Bft) S-SW 202 10 min 0,000 mm 269 W/m 0,2 C 2,1 C 14,5 km/h (3 Bft) 100 %
19.01.2022 11:40 2,4 C 1,8 C 2,4 C 86 % 1026,8 hPa 0,0 l/m 9,7 km/h (2 Bft) SW 222 10 min 0,001 mm 276 W/m 0,3 C -0,6 C 19,3 km/h (3 Bft) 96 %
19.01.2022 11:50 2,5 C 2,3 C 2,6 C 86 % 1026,7 hPa 0,0 l/m 8,0 km/h (2 Bft) S-SW 210 10 min 0,000 mm 229 W/m 0,4 C 1,0 C 19,3 km/h (3 Bft) 98 %
19.01.2022 12:00 2,6 C 2,5 C 2,6 C 86 % 1026,6 hPa 0,0 l/m 6,0 km/h (2 Bft) W 265 10 min 0,101 mm 279 W/m 0,5 C 2,6 C 16,1 km/h (3 Bft) 99 %
19.01.2022 12:10 3,1 C 2,6 C 3,1 C 86 % 1026,4 hPa 0,0 l/m 4,8 km/h (1 Bft) SW 229 10 min 0,000 mm 193 W/m 1,0 C 3,1 C 17,7 km/h (3 Bft) 100 %
19.01.2022 12:20 3,4 C 3,1 C 3,4 C 84 % 1026,3 hPa 0,0 l/m 7,1 km/h (2 Bft) S-SW 203 10 min 0,000 mm 350 W/m 1,0 C 2,7 C 24,1 km/h (4 Bft) 98 %
19.01.2022 12:30 3,4 C 3,4 C 3,5 C 83 % 1026,1 hPa 0,0 l/m 11,0 km/h (2 Bft) W-SW 238 10 min 0,000 mm 209 W/m 0,8 C -0,4 C 24,1 km/h (4 Bft) 97 %
19.01.2022 12:40 3,3 C 3,3 C 3,4 C 83 % 1025,9 hPa 0,0 l/m 8,8 km/h (2 Bft) W 259 0 min 0,000 mm 125 W/m 0,7 C 1,1 C 25,7 km/h (4 Bft) 97 %
19.01.2022 12:50 3,2 C 3,2 C 3,3 C 83 % 1025,8 hPa 0,0 l/m 7,5 km/h (2 Bft) SW 229 0 min 0,000 mm 118 W/m 0,6 C 2,2 C 20,9 km/h (4 Bft) 98 %
19.01.2022 13:00 3,2 C 3,2 C 3,2 C 84 % 1025,6 hPa 0,0 l/m 5,3 km/h (1 Bft) SW 215 0 min 0,076 mm 134 W/m 0,8 C 3,2 C 16,1 km/h (3 Bft) 96 %
19.01.2022 13:10 3,3 C 3,2 C 3,3 C 83 % 1025,6 hPa 0,0 l/m 5,6 km/h (1 Bft) SW 236 0 min 0,000 mm 83 W/m 0,7 C 3,3 C 17,7 km/h (3 Bft) 97 %
19.01.2022 13:20 3,3 C 3,3 C 3,3 C 83 % 1025,4 hPa 0,0 l/m 5,6 km/h (1 Bft) SW 232 0 min 0,000 mm 60 W/m 0,7 C 3,3 C 20,9 km/h (4 Bft) 97 %
19.01.2022 13:30 3,3 C 3,3 C 3,3 C 83 % 1025,4 hPa 0,0 l/m 5,2 km/h (1 Bft) W-SW 254 0 min 0,000 mm 63 W/m 0,7 C 3,3 C 14,5 km/h (3 Bft) 97 %
19.01.2022 13:40 3,3 C 3,3 C 3,3 C 83 % 1025,1 hPa 0,0 l/m 6,0 km/h (2 Bft) W-SW 248 0 min 0,000 mm 77 W/m 0,7 C 3,3 C 14,5 km/h (3 Bft) 97 %
19.01.2022 13:50 3,2 C 3,2 C 3,3 C 84 % 1025,1 hPa 0,0 l/m 7,0 km/h (2 Bft) W 263 0 min 0,000 mm 79 W/m 0,8 C 2,6 C 24,1 km/h (4 Bft) 89 %
19.01.2022 14:00 3,1 C 3,1 C 3,2 C 83 % 1024,8 hPa 0,0 l/m 10,4 km/h (2 Bft) W-SW 241 0 min 0,051 mm 63 W/m 0,5 C -0,3 C 24,1 km/h (4 Bft) 97 %
19.01.2022 14:10 2,9 C 2,9 C 3,1 C 84 % 1024,7 hPa 0,0 l/m 5,6 km/h (1 Bft) SW 233 0 min 0,000 mm 56 W/m 0,5 C 2,9 C 16,1 km/h (3 Bft) 98 %
19.01.2022 14:20 2,8 C 2,8 C 2,9 C 85 % 1024,6 hPa 0,0 l/m 8,6 km/h (2 Bft) W-SW 251 0 min 0,000 mm 40 W/m 0,5 C 0,8 C 22,5 km/h (4 Bft) 97 %
19.01.2022 14:30 2,7 C 2,7 C 2,8 C 85 % 1024,5 hPa 0,0 l/m 6,4 km/h (2 Bft) W-SW 248 0 min 0,000 mm 42 W/m 0,4 C 2,7 C 16,1 km/h (3 Bft) 98 %
19.01.2022 14:40 2,6 C 2,6 C 2,7 C 86 % 1024,6 hPa 0,0 l/m 6,5 km/h (2 Bft) SW 233 0 min 0,000 mm 37 W/m 0,5 C 2,5 C 20,9 km/h (4 Bft) 88 %
19.01.2022 14:50 2,5 C 2,5 C 2,6 C 87 % 1024,5 hPa 0,0 l/m 9,3 km/h (2 Bft) SW 223 0 min 0,000 mm 25 W/m 0,6 C -0,1 C 20,9 km/h (4 Bft) 98 %
19.01.2022 15:00 2,4 C 2,4 C 2,5 C 87 % 1024,4 hPa 0,0 l/m 5,6 km/h (1 Bft) W-SW 248 0 min 0,026 mm 23 W/m 0,5 C 2,4 C 20,9 km/h (4 Bft) 98 %
19.01.2022 15:10 2,3 C 2,3 C 2,4 C 88 % 1024,3 hPa 0,0 l/m 7,6 km/h (2 Bft) S-SW 208 0 min 0,000 mm 18 W/m 0,5 C 1,1 C 19,3 km/h (3 Bft) 97 %
19.01.2022 15:20 2,3 C 2,3 C 2,3 C 88 % 1024,3 hPa 0,0 l/m 9,1 km/h (2 Bft) W 266 0 min 0,000 mm 19 W/m 0,5 C -0,2 C 22,5 km/h (4 Bft) 98 %
19.01.2022 15:30 2,3 C 2,3 C 2,3 C 87 % 1024,2 hPa 0,0 l/m 9,5 km/h (2 Bft) S-SW 211 0 min 0,000 mm 16 W/m 0,4 C -0,5 C 24,1 km/h (4 Bft) 91 %
19.01.2022 15:40 2,3 C 2,3 C 2,3 C 87 % 1024,1 hPa 0,0 l/m 9,8 km/h (2 Bft) S-SW 213 0 min 0,000 mm 12 W/m 0,4 C -0,8 C 30,6 km/h (5 Bft) 100 %
19.01.2022 15:50 2,3 C 2,3 C 2,3 C 87 % 1024,0 hPa 0,0 l/m 8,1 km/h (2 Bft) SW 232 0 min 0,000 mm 9 W/m 0,4 C 0,7 C 29,0 km/h (5 Bft) 100 %
19.01.2022 16:00 2,3 C 2,3 C 2,3 C 88 % 1023,9 hPa 0,0 l/m 6,6 km/h (2 Bft) SW 224 0 min 0,025 mm 7 W/m 0,5 C 2,1 C 20,9 km/h (4 Bft) 100 %
19.01.2022 16:10 2,3 C 2,3 C 2,4 C 88 % 1023,9 hPa 0,0 l/m 13,1 km/h (3 Bft) SW 229 0 min 0,000 mm 9 W/m 0,5 C -3,1 C 24,1 km/h (4 Bft) 100 %
19.01.2022 16:20 2,3 C 2,3 C 2,3 C 88 % 1023,9 hPa 0,0 l/m 13,7 km/h (3 Bft) SW 217 0 min 0,000 mm 7 W/m 0,5 C -3,4 C 33,8 km/h (5 Bft) 91 %
19.01.2022 16:30 2,3 C 2,3 C 2,3 C 88 % 1023,9 hPa 0,0 l/m 13,5 km/h (3 Bft) SW 236 0 min 0,000 mm 0 W/m 0,5 C -3,3 C 30,6 km/h (5 Bft) 100 %
19.01.2022 16:40 2,3 C 2,3 C 2,3 C 94 % 1023,8 hPa 0,0 l/m 10,2 km/h (2 Bft) SW 228 0 min 0,000 mm 0 W/m 1,4 C -1,1 C 32,2 km/h (5 Bft) 100 %
19.01.2022 16:50 2,2 C 2,2 C 2,3 C 89 % 1023,8 hPa 0,0 l/m 10,9 km/h (2 Bft) W-SW 244 0 min 0,000 mm 0 W/m 0,6 C -1,7 C 24,1 km/h (4 Bft) 100 %
19.01.2022 17:00 2,2 C 2,2 C 2,2 C 89 % 1023,6 hPa 0,0 l/m 12,6 km/h (3 Bft) SW 230 0 min 0,025 mm 0 W/m 0,6 C -2,9 C 33,8 km/h (5 Bft) 100 %
19.01.2022 17:10 2,2 C 2,2 C 2,2 C 89 % 1023,5 hPa 0,0 l/m 9,7 km/h (2 Bft) SW 218 0 min 0,000 mm 0 W/m 0,6 C -0,8 C 20,9 km/h (4 Bft) 91 %
19.01.2022 17:20 2,2 C 2,2 C 2,2 C 89 % 1023,6 hPa 0,0 l/m 10,6 km/h (2 Bft) SW 227 0 min 0,000 mm 0 W/m 0,6 C -1,5 C 25,7 km/h (4 Bft) 100 %
19.01.2022 17:30 2,2 C 2,2 C 2,3 C 90 % 1023,6 hPa 0,0 l/m 9,5 km/h (2 Bft) SW 223 0 min 0,000 mm 0 W/m 0,7 C -0,6 C 25,7 km/h (4 Bft) 100 %
19.01.2022 17:40 2,3 C 2,2 C 2,3 C 90 % 1023,6 hPa 0,0 l/m 11,3 km/h (2 Bft) SW 235 0 min 0,000 mm 0 W/m 0,8 C -1,9 C 24,1 km/h (4 Bft) 100 %
19.01.2022 17:50 2,3 C 2,3 C 2,3 C 90 % 1023,4 hPa 0,0 l/m 9,7 km/h (2 Bft) W-SW 246 0 min 0,000 mm 0 W/m 0,8 C -0,7 C 24,1 km/h (4 Bft) 99 %
19.01.2022 18:00 2,3 C 2,3 C 2,3 C 90 % 1023,4 hPa 0,0 l/m 12,5 km/h (3 Bft) W 259 0 min 0,000 mm 0 W/m 0,8 C -2,7 C 25,7 km/h (4 Bft) 100 %
19.01.2022 18:10 2,3 C 2,3 C 2,3 C 90 % 1023,3 hPa 0,0 l/m 11,7 km/h (2 Bft) W 271 0 min 0,000 mm 0 W/m 0,8 C -2,1 C 29,0 km/h (5 Bft) 100 %
19.01.2022 18:20 2,4 C 2,3 C 2,4 C 89 % 1023,2 hPa 0,0 l/m 9,4 km/h (2 Bft) SW 225 0 min 0,000 mm 0 W/m 0,8 C -0,3 C 29,0 km/h (5 Bft) 100 %
19.01.2022 18:30 2,4 C 2,3 C 2,4 C 89 % 1023,1 hPa 0,0 l/m 10,8 km/h (2 Bft) W-SW 245 0 min 0,000 mm 0 W/m 0,8 C -1,4 C 33,8 km/h (5 Bft) 100 %
19.01.2022 18:40 2,4 C 2,4 C 2,4 C 89 % 1023,4 hPa 0,0 l/m 12,4 km/h (3 Bft) W-SW 250 0 min 0,000 mm 0 W/m 0,8 C -2,5 C 32,2 km/h (5 Bft) 100 %
19.01.2022 18:50 2,4 C 2,4 C 2,4 C 89 % 1023,4 hPa 0,0 l/m 10,3 km/h (2 Bft) W 262 0 min 0,000 mm 0 W/m 0,8 C -1,0 C 29,0 km/h (5 Bft) 91 %
19.01.2022 19:00 2,4 C 2,4 C 2,4 C 89 % 1023,4 hPa 0,0 l/m 10,7 km/h (2 Bft) W-SW 257 0 min 0,000 mm 0 W/m 0,8 C -1,3 C 27,4 km/h (4 Bft) 100 %
19.01.2022 19:10 2,5 C 2,4 C 2,5 C 89 % 1023,3 hPa 0,0 l/m 10,6 km/h (2 Bft) W-SW 242 0 min 0,000 mm 0 W/m 0,9 C -1,1 C 29,0 km/h (5 Bft) 100 %
19.01.2022 19:20 2,5 C 2,4 C 2,5 C 89 % 1023,4 hPa 0,0 l/m 6,2 km/h (2 Bft) W-SW 254 0 min 0,000 mm 0 W/m 0,9 C 2,5 C 17,7 km/h (3 Bft) 100 %
19.01.2022 19:30 2,5 C 2,4 C 2,5 C 89 % 1023,3 hPa 0,0 l/m 9,6 km/h (2 Bft) SW 236 0 min 0,000 mm 0 W/m 0,9 C -0,4 C 29,0 km/h (5 Bft) 100 %
19.01.2022 19:40 2,6 C 2,5 C 2,6 C 88 % 1023,3 hPa 0,0 l/m 11,0 km/h (2 Bft) W-SW 250 0 min 0,000 mm 0 W/m 0,8 C -1,3 C 27,4 km/h (4 Bft) 100 %
19.01.2022 19:50 2,6 C 2,6 C 2,6 C 88 % 1023,1 hPa 0,0 l/m 11,7 km/h (2 Bft) W-SW 246 0 min 0,000 mm 0 W/m 0,8 C -1,8 C 25,7 km/h (4 Bft) 100 %
19.01.2022 20:00 2,6 C 2,6 C 2,6 C 88 % 1023,2 hPa 0,0 l/m 9,0 km/h (2 Bft) W-SW 242 0 min 0,000 mm 0 W/m 0,8 C 0,2 C 27,4 km/h (4 Bft) 100 %
19.01.2022 20:10 2,6 C 2,6 C 2,6 C 88 % 1023,4 hPa 0,0 l/m 8,7 km/h (2 Bft) SW 234 0 min 0,000 mm 0 W/m 0,8 C 0,5 C 22,5 km/h (4 Bft) 100 %
19.01.2022 20:20 2,6 C 2,6 C 2,6 C 88 % 1023,4 hPa 0,0 l/m 9,7 km/h (2 Bft) W 260 0 min 0,000 mm 0 W/m 0,8 C -0,3 C 24,1 km/h (4 Bft) 100 %
19.01.2022 20:30 2,6 C 2,6 C 2,7 C 88 % 1023,4 hPa 0,0 l/m 8,1 km/h (2 Bft) W-SW 238 0 min 0,000 mm 0 W/m 0,8 C 1,0 C 24,1 km/h (4 Bft) 100 %
19.01.2022 20:40 2,6 C 2,6 C 2,7 C 87 % 1023,3 hPa 0,0 l/m 10,1 km/h (2 Bft) W 265 0 min 0,000 mm 0 W/m 0,7 C -0,7 C 27,4 km/h (4 Bft) 100 %
19.01.2022 20:50 2,6 C 2,6 C 2,6 C 87 % 1023,3 hPa 0,0 l/m 4,7 km/h (1 Bft) SW 216 0 min 0,000 mm 0 W/m 0,7 C 2,6 C 20,9 km/h (4 Bft) 100 %
19.01.2022 21:00 2,6 C 2,6 C 2,6 C 87 % 1023,3 hPa 0,0 l/m 11,5 km/h (2 Bft) W-SW 257 0 min 0,000 mm 0 W/m 0,7 C -1,7 C 27,4 km/h (4 Bft) 100 %
19.01.2022 21:10 2,6 C 2,6 C 2,6 C 88 % 1023,5 hPa 0,0 l/m 6,4 km/h (2 Bft) W-SW 247 0 min 0,000 mm 0 W/m 0,8 C 2,6 C 24,1 km/h (4 Bft) 99 %
19.01.2022 21:20 2,6 C 2,6 C 2,6 C 88 % 1023,4 hPa 0,0 l/m 8,0 km/h (2 Bft) W-SW 247 0 min 0,000 mm 0 W/m 0,8 C 1,1 C 25,7 km/h (4 Bft) 100 %
19.01.2022 21:30 2,4 C 2,4 C 2,6 C 89 % 1023,4 hPa 0,0 l/m 8,0 km/h (2 Bft) W-SW 247 0 min 0,000 mm 0 W/m 0,8 C 0,9 C 27,4 km/h (4 Bft) 100 %
19.01.2022 21:40 2,4 C 2,4 C 2,4 C 90 % 1023,6 hPa 0,0 l/m 9,7 km/h (2 Bft) W-SW 247 0 min 0,000 mm 0 W/m 0,9 C -0,6 C 25,7 km/h (4 Bft) 100 %
19.01.2022 21:50 2,3 C 2,3 C 2,4 C 91 % 1023,5 hPa 0,0 l/m 9,7 km/h (2 Bft) W-SW 247 0 min 0,000 mm 0 W/m 1,0 C -0,7 C 29,0 km/h (5 Bft) 100 %
19.01.2022 22:00 2,2 C 2,2 C 2,3 C 92 % 1023,4 hPa 0,0 l/m 8,0 km/h (2 Bft) W-SW 247 0 min 0,000 mm 0 W/m 1,0 C 0,7 C 19,3 km/h (3 Bft) 100 %
19.01.2022 22:10 2,1 C 2,1 C 2,2 C 92 % 1023,3 hPa 0,0 l/m 6,4 km/h (2 Bft) SW 225 0 min 0,000 mm 0 W/m 0,9 C 2,1 C 20,9 km/h (4 Bft) 100 %
19.01.2022 22:20 2,1 C 2,1 C 2,1 C 92 % 1023,3 hPa 0,0 l/m 4,8 km/h (1 Bft) SW 225 0 min 0,000 mm 0 W/m 0,9 C 2,1 C 17,7 km/h (3 Bft) 100 %
19.01.2022 22:30 2,1 C 2,1 C 2,1 C 92 % 1023,3 hPa 0,0 l/m 6,4 km/h (2 Bft) W-SW 247 0 min 0,000 mm 0 W/m 0,9 C 2,1 C 19,3 km/h (3 Bft) 100 %
19.01.2022 22:40 2,1 C 2,1 C 2,1 C 92 % 1023,3 hPa 0,0 l/m 8,0 km/h (2 Bft) SW 225 0 min 0,000 mm 0 W/m 0,9 C 0,6 C 20,9 km/h (4 Bft) 100 %
19.01.2022 22:50 2,1 C 2,1 C 2,1 C 93 % 1023,1 hPa 0,2 l/m 8,0 km/h (2 Bft) SW 225 0 min 0,000 mm 0 W/m 1,1 C 0,6 C 22,5 km/h (4 Bft) 100 %
19.01.2022 23:00 2,1 C 2,1 C 2,1 C 93 % 1023,0 hPa 0,0 l/m 6,4 km/h (2 Bft) W-SW 247 0 min 0,000 mm 0 W/m 1,1 C 2,1 C 19,3 km/h (3 Bft) 100 %
19.01.2022 23:10 2,1 C 2,1 C 2,1 C 92 % 1023,0 hPa 0,0 l/m 6,4 km/h (2 Bft) W-SW 247 0 min 0,000 mm 0 W/m 0,9 C 2,1 C 20,9 km/h (4 Bft) 100 %
19.01.2022 23:20 2,0 C 2,0 C 2,1 C 93 % 1023,0 hPa 0,0 l/m 9,7 km/h (2 Bft) W-SW 247 0 min 0,000 mm 0 W/m 1,0 C -1,0 C 33,8 km/h (5 Bft) 100 %
19.01.2022 23:30 1,9 C 1,9 C 2,0 C 93 % 1023,1 hPa 0,0 l/m 9,7 km/h (2 Bft) W-SW 247 0 min 0,000 mm 0 W/m 0,9 C -1,1 C 30,6 km/h (5 Bft) 100 %
19.01.2022 23:40 1,9 C 1,9 C 1,9 C 93 % 1023,2 hPa 0,0 l/m 6,4 km/h (2 Bft) W-SW 247 0 min 0,000 mm 0 W/m 0,9 C 1,9 C 22,5 km/h (4 Bft) 100 %
19.01.2022 23:50 1,8 C 1,8 C 1,9 C 93 % 1023,1 hPa 0,0 l/m 3,2 km/h (1 Bft) W-SW 247 0 min 0,000 mm 0 W/m 0,8 C 1,8 C 14,5 km/h (3 Bft) 100 %
_ Min-Zeit 08:20 08:20 08:20 12:30 23:00 - 00:20 - - - - - 08:10 16:20 01:50 04:00
Minimum _ -1,7 C -1,7 C -1,6 C 83 % 1023,0 hPa - 0,0 km/h (0 Bft) - - - - - -2,7 C -3,4 C 0,0 km/h (0 Bft) 87 %
_ Max-Zeit 00:00 00:00 00:00 16:40 00:00 22:50 16:20 - - 10:00 12:00 12:20 00:00 00:00 16:20 01:30
Maximum _ 3,7 C 3,6 C 3,7 C 94 % 1033,4 hPa 0,2 l/m 13,7 km/h
SW (3 Bft)
- - 10 min 0,101 mm 350 W/m 1,5 C 3,6 C 33,8 km/h
S-SW (5 Bft)
100 %
Durchschnitt _ 1,7 C 1,6 C 1,7 C 89 % 1026,9 hPa #0,2 l/m 4,9 km/h (1 Bft) W-SW - #2:40 h #0,406 mm 112 W/m -0,0 C 0,6 C 14,3 km/h (3 Bft) 99 %
PRIVATE WETTERSTATION BILLIGHEIM-ALLFELD - www.neckar-odenwald-wetter.de - Holger Sonntag